Time;durP1;ratioP1;P1;durP2;ratioP2;P2;SDS_P1;SDS_P2;PMS_P1;PMS_P2;Temp;Humidity;BMP_temperature;BMP_pressure;BME280_temperature;BME280_humidity;BME280_pressure;Samples;Min_cycle;Max_cycle;Signal;HPM_P1;HPM_P2
2023/12/04 00:00:25;;;;;;;7.75;3.10;;;6.60;99.90;;;;;;5068566;28;20017;-48
2023/12/04 00:02:50;;;;;;;7.43;2.90;;;6.70;99.90;;;;;;5069964;28;20432;-46
2023/12/04 00:05:16;;;;;;;10.13;2.80;;;6.70;99.90;;;;;;5068569;28;20048;-53
2023/12/04 00:07:42;;;;;;;3.58;1.98;;;6.60;99.90;;;;;;5069535;28;20020;-53
2023/12/04 00:10:08;;;;;;;7.75;2.67;;;6.60;99.90;;;;;;5068502;28;20066;-49
2023/12/04 00:12:34;;;;;;;12.90;3.15;;;6.60;99.90;;;;;;5069388;28;20048;-49
2023/12/04 00:14:59;;;;;;;6.93;2.20;;;6.50;99.90;;;;;;5070834;28;20055;-46
2023/12/04 00:17:25;;;;;;;12.40;2.78;;;6.60;99.90;;;;;;5069294;28;20058;-54
2023/12/04 00:19:51;;;;;;;6.13;2.47;;;6.50;99.90;;;;;;5069768;28;20021;-49
2023/12/04 00:22:16;;;;;;;9.38;2.35;;;6.50;99.90;;;;;;5068607;28;20063;-49
2023/12/04 00:24:42;;;;;;;7.20;2.10;;;6.50;99.90;;;;;;5068988;28;20077;-52
2023/12/04 00:27:08;;;;;;;5.90;2.45;;;6.50;99.90;;;;;;5068140;28;20039;-48
2023/12/04 00:29:33;;;;;;;8.57;2.50;;;6.50;99.90;;;;;;5069199;28;20043;-48
2023/12/04 00:31:59;;;;;;;11.98;1.98;;;6.40;99.90;;;;;;5070033;28;20052;-44
2023/12/04 00:34:25;;;;;;;10.82;1.92;;;6.50;99.90;;;;;;5068662;28;20388;-48
2023/12/04 00:36:50;;;;;;;6.68;2.25;;;6.40;99.90;;;;;;5068641;28;20032;-46
2023/12/04 00:39:16;;;;;;;9.38;2.00;;;6.40;99.90;;;;;;5067220;28;20036;-46
2023/12/04 00:41:43;;;;;;;8.52;2.08;;;6.40;99.90;;;;;;5050110;28;20045;-49
2023/12/04 00:44:08;;;;;;;4.10;1.67;;;6.40;99.90;;;;;;5071411;28;20562;-52
2023/12/04 00:46:34;;;;;;;9.18;2.70;;;6.40;99.90;;;;;;5068284;28;20021;-51
2023/12/04 00:48:59;;;;;;;6.35;1.67;;;6.30;99.90;;;;;;5068752;28;20070;-50
2023/12/04 00:51:26;;;;;;;12.15;2.03;;;6.30;99.90;;;;;;5064881;28;20099;-48
2023/12/04 00:53:51;;;;;;;4.07;1.90;;;6.30;99.90;;;;;;5059966;28;20017;-50
2023/12/04 00:56:19;;;;;;;8.95;2.00;;;6.30;99.90;;;;;;5060467;28;20033;-49
2023/12/04 00:58:45;;;;;;;3.80;1.60;;;6.30;99.90;;;;;;5056041;28;20036;-48
2023/12/04 01:01:10;;;;;;;9.88;2.22;;;6.20;99.90;;;;;;5058605;28;20075;-50
2023/12/04 01:03:37;;;;;;;5.32;1.52;;;6.20;99.90;;;;;;5058002;28;20393;-44
2023/12/04 01:06:03;;;;;;;6.82;2.03;;;6.20;99.90;;;;;;5061320;28;20245;-45
2023/12/04 01:08:29;;;;;;;7.03;2.17;;;6.20;99.90;;;;;;5056515;28;20467;-45
2023/12/04 01:10:54;;;;;;;6.10;1.67;;;6.20;99.90;;;;;;5056399;28;20807;-49
2023/12/04 01:13:20;;;;;;;6.00;2.00;;;6.10;99.90;;;;;;5058627;28;20036;-52
2023/12/04 01:15:48;;;;;;;4.82;1.70;;;6.10;99.90;;;;;;5056703;28;20076;-49
2023/12/04 01:18:14;;;;;;;5.10;1.52;;;6.10;99.90;;;;;;5051821;28;20120;-52
2023/12/04 01:20:40;;;;;;;7.63;2.08;;;6.10;99.90;;;;;;5056482;28;20508;-45
2023/12/04 01:23:05;;;;;;;4.03;1.73;;;6.10;99.90;;;;;;5060534;28;20040;-50
2023/12/04 01:25:31;;;;;;;6.68;1.65;;;6.10;99.90;;;;;;5056928;28;20016;-53
2023/12/04 01:27:56;;;;;;;12.70;1.98;;;6.00;99.90;;;;;;5051105;28;20040;-45
2023/12/04 01:30:22;;;;;;;8.75;1.73;;;6.10;99.90;;;;;;5055330;28;20028;-55
2023/12/04 01:32:48;;;;;;;4.57;1.45;;;6.00;99.90;;;;;;5065083;28;20474;-43
2023/12/04 01:35:13;;;;;;;3.33;1.40;;;6.10;99.90;;;;;;5064098;28;20029;-44
2023/12/04 01:37:39;;;;;;;10.70;2.22;;;6.00;99.90;;;;;;5062003;28;20057;-46
2023/12/04 01:40:06;;;;;;;8.30;1.83;;;6.00;99.90;;;;;;5053742;28;20081;-47
2023/12/04 01:42:32;;;;;;;5.93;1.60;;;6.00;99.90;;;;;;5065305;28;20051;-53
2023/12/04 01:44:58;;;;;;;12.43;2.03;;;6.00;99.90;;;;;;5065968;28;20393;-44
2023/12/04 01:47:24;;;;;;;10.68;1.58;;;6.00;99.90;;;;;;5063351;28;20445;-46
2023/12/04 01:49:50;;;;;;;5.45;2.20;;;6.00;99.90;;;;;;5069570;28;20038;-44
2023/12/04 01:52:16;;;;;;;3.10;1.55;;;6.10;99.90;;;;;;5070388;28;20047;-45
2023/12/04 01:54:42;;;;;;;6.88;1.65;;;6.00;99.90;;;;;;5071152;28;20013;-46
2023/12/04 01:57:09;;;;;;;12.02;2.25;;;6.00;99.90;;;;;;5071091;28;20025;-46
2023/12/04 01:59:34;;;;;;;6.20;1.25;;;6.00;99.90;;;;;;5070853;28;20391;-49
2023/12/04 02:02:02;;;;;;;9.35;1.77;;;6.10;99.90;;;;;;5070583;28;20025;-46
2023/12/04 02:04:27;;;;;;;5.63;1.48;;;6.10;99.90;;;;;;5068053;28;20220;-50
2023/12/04 02:06:53;;;;;;;7.28;1.52;;;6.10;99.90;;;;;;5066143;28;20020;-43
2023/12/04 02:09:19;;;;;;;6.00;1.70;;;6.10;99.90;;;;;;5069963;28;20539;-47
2023/12/04 02:11:45;;;;;;;12.27;1.50;;;6.10;99.90;;;;;;5070324;28;20025;-45
2023/12/04 02:14:11;;;;;;;10.27;1.55;;;6.10;99.90;;;;;;5070207;28;20106;-46
2023/12/04 02:16:41;;;;;;;5.05;1.63;;;6.20;99.90;;;;;;5069939;28;20066;-45
2023/12/04 02:19:16;;;;;;;5.55;1.38;;;6.20;99.90;;;;;;5069998;28;20032;-43
2023/12/04 02:21:41;;;;;;;4.13;1.45;;;6.20;99.90;;;;;;5070031;28;20028;-44
2023/12/04 02:24:07;;;;;;;5.45;1.55;;;6.20;99.90;;;;;;5069992;28;20524;-46
2023/12/04 02:26:42;;;;;;;6.85;1.48;;;6.30;99.90;;;;;;5069974;28;20023;-47
2023/12/04 02:29:13;;;;;;;5.03;1.40;;;6.30;99.90;;;;;;5069909;28;20405;-48
2023/12/04 02:31:40;;;;;;;10.32;1.60;;;6.40;99.90;;;;;;5069606;28;20029;-42
2023/12/04 02:34:07;;;;;;;8.10;1.88;;;6.40;99.90;;;;;;5051837;28;20020;-45
2023/12/04 02:36:35;;;;;;;8.00;1.30;;;6.50;99.90;;;;;;5069916;28;20025;-49
2023/12/04 02:39:01;;;;;;;4.47;1.08;;;6.40;99.90;;;;;;5069628;28;20083;-49
2023/12/04 02:41:27;;;;;;;4.10;1.48;;;6.40;99.90;;;;;;5069665;28;20124;-46
2023/12/04 02:43:53;;;;;;;3.08;1.25;;;6.50;99.90;;;;;;5069771;28;20025;-43
2023/12/04 02:46:18;;;;;;;4.22;1.83;;;6.40;99.90;;;;;;5065774;28;20439;-43
2023/12/04 02:48:44;;;;;;;4.70;1.73;;;6.50;99.90;;;;;;5069494;28;20021;-51
2023/12/04 02:51:11;;;;;;;4.13;1.52;;;6.40;99.90;;;;;;5069781;28;20493;-49
2023/12/04 02:53:36;;;;;;;6.38;1.60;;;6.40;99.90;;;;;;5069830;28;20021;-49
2023/12/04 02:56:02;;;;;;;11.95;2.08;;;6.40;99.90;;;;;;5069738;28;20063;-46
2023/12/04 02:58:28;;;;;;;4.97;1.55;;;6.40;99.90;;;;;;5069358;28;20394;-48
2023/12/04 03:00:53;;;;;;;3.47;1.65;;;6.50;99.90;;;;;;5070055;28;20025;-44
2023/12/04 03:03:19;;;;;;;4.55;1.30;;;6.50;99.90;;;;;;5072479;28;20033;-47
2023/12/04 03:05:44;;;;;;;7.60;1.73;;;6.50;99.90;;;;;;5073763;28;20059;-48
2023/12/04 03:08:10;;;;;;;4.63;1.38;;;6.50;99.90;;;;;;5073759;28;20043;-49
2023/12/04 03:10:35;;;;;;;5.13;1.48;;;6.50;99.90;;;;;;5073528;28;20020;-48
2023/12/04 03:13:01;;;;;;;4.40;1.30;;;6.50;99.90;;;;;;5072973;28;20436;-50
2023/12/04 03:15:28;;;;;;;8.48;1.80;;;6.50;99.90;;;;;;5073599;28;20052;-48
2023/12/04 03:17:55;;;;;;;5.57;1.80;;;6.50;99.90;;;;;;5073121;28;20520;-48
2023/12/04 03:20:20;;;;;;;6.75;1.45;;;6.50;99.90;;;;;;5073465;28;20049;-48
2023/12/04 03:22:46;;;;;;;7.70;1.55;;;6.50;99.90;;;;;;5073171;28;20036;-48
2023/12/04 03:25:11;;;;;;;4.18;1.42;;;6.60;99.90;;;;;;5073225;28;20028;-54
2023/12/04 03:27:37;;;;;;;5.70;1.63;;;6.60;99.90;;;;;;5073215;28;20027;-49
2023/12/04 03:30:03;;;;;;;3.67;1.50;;;6.60;99.90;;;;;;5069639;28;20056;-54
2023/12/04 03:32:29;;;;;;;9.93;2.85;;;6.60;99.90;;;;;;5071501;28;20501;-50
2023/12/04 03:34:55;;;;;;;4.78;1.92;;;6.60;99.90;;;;;;5072882;28;20043;-55
2023/12/04 03:37:20;;;;;;;3.35;1.25;;;6.60;99.90;;;;;;5072726;28;20123;-51
2023/12/04 03:39:46;;;;;;;9.30;1.65;;;6.60;99.90;;;;;;5072978;28;20029;-50
2023/12/04 03:42:11;;;;;;;6.70;1.70;;;6.60;99.90;;;;;;5072832;28;20421;-48
2023/12/04 03:44:37;;;;;;;7.20;2.17;;;6.60;99.90;;;;;;5072994;28;20436;-50
2023/12/04 03:47:03;;;;;;;7.68;1.85;;;6.50;99.90;;;;;;5072806;28;20103;-46
2023/12/04 03:49:28;;;;;;;9.55;1.45;;;6.50;99.90;;;;;;5072802;28;20499;-47
2023/12/04 03:51:54;;;;;;;5.65;1.60;;;6.50;99.90;;;;;;5068864;28;20455;-50
2023/12/04 03:54:20;;;;;;;10.52;2.10;;;6.50;99.90;;;;;;5072359;28;20161;-50
2023/12/04 03:56:46;;;;;;;6.80;1.83;;;6.40;99.90;;;;;;5071229;28;20363;-53
2023/12/04 03:59:11;;;;;;;9.10;2.58;;;6.40;99.90;;;;;;5072652;28;20036;-44
2023/12/04 04:01:37;;;;;;;12.63;2.05;;;6.30;99.90;;;;;;5073219;28;20082;-49
2023/12/04 04:04:03;;;;;;;8.00;1.98;;;6.30;99.90;;;;;;5073119;28;20032;-45
2023/12/04 04:06:28;;;;;;;6.82;1.73;;;6.30;99.90;;;;;;5072959;28;20019;-52
2023/12/04 04:08:54;;;;;;;7.28;2.17;;;6.30;99.90;;;;;;5073016;28;20024;-53
2023/12/04 04:11:20;;;;;;;9.25;2.72;;;6.30;99.90;;;;;;5055103;28;20458;-52
2023/12/04 04:13:45;;;;;;;4.63;2.30;;;6.30;99.90;;;;;;5072349;28;20033;-52
2023/12/04 04:16:18;;;;;;;20.55;2.03;;;6.30;99.90;;;;;;5072811;28;20021;-45
2023/12/04 04:18:43;;;;;;;3.75;1.70;;;6.40;99.90;;;;;;5073035;28;20035;-54
2023/12/04 04:21:09;;;;;;;6.00;2.05;;;6.40;99.90;;;;;;5072752;28;20036;-48
2023/12/04 04:23:35;;;;;;;7.43;1.90;;;6.40;99.90;;;;;;5072919;28;20420;-51
2023/12/04 04:26:01;;;;;;;6.45;1.95;;;6.40;99.90;;;;;;5073064;28;20131;-46
2023/12/04 04:28:27;;;;;;;9.23;2.25;;;6.40;99.90;;;;;;5088317;28;20460;-46
2023/12/04 04:30:52;;;;;;;10.05;2.30;;;6.50;99.90;;;;;;5072394;28;20043;-44
2023/12/04 04:33:18;;;;;;;10.68;1.90;;;6.50;99.90;;;;;;5072129;28;20074;-51
2023/12/04 04:35:43;;;;;;;4.47;1.52;;;6.50;99.90;;;;;;5072166;28;20017;-53
2023/12/04 04:38:09;;;;;;;4.18;1.55;;;6.50;99.90;;;;;;5067586;28;20374;-50
2023/12/04 04:40:35;;;;;;;4.03;2.00;;;6.50;99.90;;;;;;5071039;28;20028;-47
2023/12/04 04:43:01;;;;;;;9.50;2.10;;;6.50;99.90;;;;;;5071889;28;20386;-53
2023/12/04 04:45:26;;;;;;;6.95;2.28;;;6.50;99.90;;;;;;5071555;28;20027;-53
2023/12/04 04:47:52;;;;;;;10.48;2.55;;;6.50;99.90;;;;;;5071896;28;20024;-44
2023/12/04 04:50:18;;;;;;;4.60;1.35;;;6.50;99.90;;;;;;5071299;28;20631;-53
2023/12/04 04:52:43;;;;;;;2.45;1.40;;;6.50;99.90;;;;;;5071830;28;20527;-53
2023/12/04 04:55:09;;;;;;;4.53;1.95;;;6.50;99.90;;;;;;5071614;28;20016;-47
2023/12/04 04:57:34;;;;;;;5.10;1.58;;;6.40;99.90;;;;;;5071774;28;20028;-50
2023/12/04 05:00:00;;;;;;;3.58;1.90;;;6.40;99.90;;;;;;5071416;28;20056;-46
2023/12/04 05:02:26;;;;;;;11.40;2.03;;;6.40;99.90;;;;;;5071733;28;20867;-55
2023/12/04 05:04:51;;;;;;;7.65;2.13;;;6.40;99.90;;;;;;5071212;28;20020;-55
2023/12/04 05:07:17;;;;;;;5.10;2.15;;;6.40;99.90;;;;;;5071298;28;20036;-51
2023/12/04 05:09:43;;;;;;;8.60;1.98;;;6.40;99.90;;;;;;5071292;28;20025;-47
2023/12/04 05:12:08;;;;;;;7.38;1.65;;;6.40;99.90;;;;;;5075664;28;20455;-51
2023/12/04 05:14:34;;;;;;;4.25;1.67;;;6.40;99.90;;;;;;5071053;28;20028;-53
2023/12/04 05:17:00;;;;;;;3.08;1.70;;;6.40;99.90;;;;;;5070827;28;20040;-53
2023/12/04 05:19:25;;;;;;;4.90;1.70;;;6.40;99.90;;;;;;5071167;28;20040;-58
2023/12/04 05:21:51;;;;;;;3.97;1.75;;;6.40;99.90;;;;;;5071126;28;20020;-55
2023/12/04 05:24:16;;;;;;;4.43;1.83;;;6.40;99.90;;;;;;5071163;28;20385;-47
2023/12/04 05:26:43;;;;;;;2.88;1.60;;;6.40;99.90;;;;;;5070873;28;20477;-51
2023/12/04 05:29:09;;;;;;;4.78;1.60;;;6.40;99.90;;;;;;5071359;28;20055;-48
2023/12/04 05:31:34;;;;;;;13.68;2.00;;;6.40;99.90;;;;;;5070982;28;20482;-51
2023/12/04 05:34:00;;;;;;;4.82;2.40;;;6.30;99.90;;;;;;5071125;28;20093;-52
2023/12/04 05:36:26;;;;;;;5.78;1.85;;;6.40;99.90;;;;;;5071459;28;20025;-54
2023/12/04 05:38:53;;;;;;;8.35;2.05;;;6.40;99.90;;;;;;5071020;28;20040;-50
2023/12/04 05:41:19;;;;;;;5.75;2.28;;;6.30;99.90;;;;;;5070880;28;20020;-50
2023/12/04 05:43:45;;;;;;;5.30;1.98;;;6.30;99.90;;;;;;5070594;28;20099;-52
2023/12/04 05:46:10;;;;;;;5.00;2.13;;;6.30;99.90;;;;;;5070719;28;20040;-50
2023/12/04 05:48:36;;;;;;;7.00;2.13;;;6.30;99.90;;;;;;5070448;28;20025;-46
2023/12/04 05:51:01;;;;;;;7.00;1.98;;;6.30;99.90;;;;;;5070149;28;20063;-55
2023/12/04 05:53:28;;;;;;;5.68;1.98;;;6.30;99.90;;;;;;5070538;28;20024;-49
2023/12/04 05:55:54;;;;;;;2.70;1.45;;;6.30;99.90;;;;;;5070427;28;20060;-44
2023/12/04 05:58:20;;;;;;;4.55;1.73;;;6.30;99.90;;;;;;5070656;28;20075;-47
2023/12/04 06:00:45;;;;;;;8.55;1.95;;;6.30;99.90;;;;;;5070354;28;20091;-50
2023/12/04 06:03:11;;;;;;;5.72;1.75;;;6.30;99.90;;;;;;5070463;28;20064;-46
2023/12/04 06:05:37;;;;;;;6.57;1.70;;;6.30;99.90;;;;;;5070114;28;20028;-53
2023/12/04 06:08:03;;;;;;;6.70;1.75;;;6.30;99.90;;;;;;5070677;28;20028;-51
2023/12/04 06:10:28;;;;;;;5.45;1.73;;;6.30;99.90;;;;;;5070114;28;20556;-54
2023/12/04 06:12:54;;;;;;;3.35;1.75;;;6.40;99.90;;;;;;5070030;28;20111;-44
2023/12/04 06:15:20;;;;;;;5.63;1.73;;;6.30;99.90;;;;;;5070188;28;20082;-50
2023/12/04 06:17:45;;;;;;;4.63;2.08;;;6.40;99.90;;;;;;5069747;28;20032;-47
2023/12/04 06:20:11;;;;;;;5.85;2.60;;;6.40;99.90;;;;;;5070098;28;20025;-46
2023/12/04 06:22:37;;;;;;;8.60;2.38;;;6.40;99.90;;;;;;5070214;28;20032;-51
2023/12/04 06:25:03;;;;;;;4.47;2.10;;;6.40;99.90;;;;;;5052048;28;20120;-52
2023/12/04 06:27:29;;;;;;;7.43;2.42;;;6.40;99.90;;;;;;5070162;28;20020;-49
2023/12/04 06:29:55;;;;;;;6.90;2.42;;;6.50;99.90;;;;;;5069917;28;20031;-45
2023/12/04 06:32:21;;;;;;;5.15;2.50;;;6.50;99.90;;;;;;5069937;28;20025;-44
2023/12/04 06:34:47;;;;;;;5.35;2.10;;;6.50;99.90;;;;;;5070019;28;20448;-56
2023/12/04 06:37:13;;;;;;;4.10;1.73;;;6.50;99.90;;;;;;5068988;28;20033;-45
2023/12/04 06:39:40;;;;;;;6.80;2.50;;;6.50;99.90;;;;;;5070047;28;20039;-44
2023/12/04 06:42:07;;;;;;;10.68;2.03;;;6.60;99.90;;;;;;5070083;28;20035;-45
2023/12/04 06:44:34;;;;;;;5.82;2.03;;;6.50;99.90;;;;;;5070035;28;20473;-53
2023/12/04 06:47:04;;;;;;;8.68;2.45;;;6.50;99.90;;;;;;5069757;28;20488;-45
2023/12/04 06:49:31;;;;;;;5.60;1.92;;;6.60;99.90;;;;;;5069634;28;20024;-48
2023/12/04 06:51:58;;;;;;;3.95;2.20;;;6.60;99.90;;;;;;5069945;28;20028;-45
2023/12/04 06:54:23;;;;;;;5.50;2.33;;;6.60;99.90;;;;;;5051659;28;20401;-44
2023/12/04 06:56:49;;;;;;;8.18;2.70;;;6.60;99.90;;;;;;5069858;28;20024;-44
2023/12/04 06:59:14;;;;;;;5.32;2.33;;;6.60;99.90;;;;;;5069424;28;20090;-44
2023/12/04 07:01:40;;;;;;;8.32;2.50;;;6.60;99.90;;;;;;5069825;28;20028;-45
2023/12/04 07:04:09;;;;;;;5.07;2.35;;;6.60;99.90;;;;;;5069740;28;20025;-45
2023/12/04 07:06:38;;;;;;;5.43;2.00;;;6.60;99.90;;;;;;5069614;28;20029;-45
2023/12/04 07:09:04;;;;;;;7.30;2.00;;;6.70;99.90;;;;;;5069394;28;20515;-45
2023/12/04 07:11:30;;;;;;;5.55;1.67;;;6.70;99.90;;;;;;5069564;28;20031;-45
2023/12/04 07:13:56;;;;;;;5.78;2.50;;;6.70;99.90;;;;;;5064860;28;20032;-49
2023/12/04 07:16:22;;;;;;;6.88;2.22;;;6.70;99.90;;;;;;5067948;28;20096;-44
2023/12/04 07:18:47;;;;;;;6.80;1.95;;;6.70;99.90;;;;;;5069161;28;20036;-45
2023/12/04 07:21:13;;;;;;;7.45;2.90;;;6.70;99.90;;;;;;5068357;28;20059;-45
2023/12/04 07:23:38;;;;;;;4.30;1.90;;;6.70;99.90;;;;;;5068538;28;20024;-44
2023/12/04 07:26:06;;;;;;;6.25;2.17;;;6.70;99.90;;;;;;5069252;28;20031;-44
2023/12/04 07:28:32;;;;;;;7.65;2.63;;;6.70;99.90;;;;;;5051896;28;20040;-44
2023/12/04 07:30:58;;;;;;;7.70;2.05;;;6.70;99.90;;;;;;5069230;28;20025;-45
2023/12/04 07:33:23;;;;;;;9.57;2.40;;;6.70;99.90;;;;;;5069535;28;20523;-45
2023/12/04 07:35:49;;;;;;;5.40;2.60;;;6.80;99.90;;;;;;5069776;28;20020;-44
2023/12/04 07:38:15;;;;;;;5.40;2.35;;;6.70;99.90;;;;;;5050946;28;20135;-45
2023/12/04 07:40:40;;;;;;;9.38;3.30;;;6.70;99.90;;;;;;5069206;28;20059;-46
2023/12/04 07:43:06;;;;;;;6.78;2.25;;;6.70;99.90;;;;;;5069003;28;20417;-46
2023/12/04 07:45:31;;;;;;;7.32;2.28;;;6.70;99.90;;;;;;5062582;28;20374;-45
2023/12/04 07:47:57;;;;;;;5.72;2.97;;;6.70;99.90;;;;;;5068041;28;20021;-45
2023/12/04 07:50:24;;;;;;;8.27;3.10;;;6.70;99.90;;;;;;5067864;28;20056;-44
2023/12/04 07:52:49;;;;;;;10.80;2.88;;;6.70;99.90;;;;;;5067050;28;20036;-45
2023/12/04 07:55:15;;;;;;;8.80;3.13;;;6.70;99.90;;;;;;5068376;28;20035;-47
2023/12/04 07:57:41;;;;;;;13.23;2.78;;;6.70;99.90;;;;;;5069619;28;20289;-45
2023/12/04 08:00:07;;;;;;;9.32;2.83;;;6.80;99.90;;;;;;5071290;28;20051;-45
2023/12/04 08:02:32;;;;;;;7.20;2.95;;;6.70;99.90;;;;;;5066931;28;20024;-44
2023/12/04 08:04:58;;;;;;;6.35;3.10;;;6.70;99.90;;;;;;5069760;28;20148;-45
2023/12/04 08:07:24;;;;;;;5.72;2.85;;;6.70;99.90;;;;;;5068990;28;20036;-45
2023/12/04 08:09:50;;;;;;;11.45;3.83;;;6.80;99.90;;;;;;5068386;28;20051;-44
2023/12/04 08:12:16;;;;;;;10.02;3.35;;;6.80;99.90;;;;;;5070887;28;20056;-45
2023/12/04 08:14:42;;;;;;;15.20;3.40;;;6.80;99.90;;;;;;5068454;28;20063;-45
2023/12/04 08:17:07;;;;;;;8.95;3.88;;;6.80;99.90;;;;;;5072462;28;20020;-44
2023/12/04 08:19:33;;;;;;;8.32;2.65;;;6.80;99.90;;;;;;5064532;28;20076;-44
2023/12/04 08:21:59;;;;;;;8.07;2.70;;;6.80;99.90;;;;;;5062854;28;20037;-44
2023/12/04 08:24:25;;;;;;;11.82;3.10;;;6.80;99.90;;;;;;5053823;28;20039;-47
2023/12/04 08:26:50;;;;;;;8.48;3.08;;;6.80;99.90;;;;;;5052606;28;20075;-51
2023/12/04 08:29:17;;;;;;;11.15;3.47;;;6.90;99.90;;;;;;5045514;28;20111;-46
2023/12/04 08:31:43;;;;;;;12.23;2.75;;;6.80;99.90;;;;;;5062486;28;20028;-48
2023/12/04 08:34:09;;;;;;;9.52;2.72;;;6.90;99.90;;;;;;5060623;28;20103;-47
2023/12/04 08:36:35;;;;;;;8.50;3.03;;;6.90;99.90;;;;;;5062616;28;20087;-51
2023/12/04 08:39:01;;;;;;;6.43;2.78;;;6.90;99.90;;;;;;5069179;28;20040;-48
2023/12/04 08:41:28;;;;;;;13.80;3.05;;;6.90;99.90;;;;;;5071849;28;20215;-45
2023/12/04 08:43:54;;;;;;;7.07;2.42;;;6.90;99.90;;;;;;5071479;28;20020;-53
2023/12/04 08:46:20;;;;;;;7.22;2.95;;;6.90;99.90;;;;;;5072260;28;20060;-52
2023/12/04 08:48:46;;;;;;;9.68;2.78;;;6.90;99.90;;;;;;5070096;28;20106;-47
2023/12/04 08:51:18;;;;;;;8.00;2.60;;;6.90;99.90;;;;;;5068370;28;20028;-47
2023/12/04 08:53:44;;;;;;;9.95;2.30;;;6.90;99.90;;;;;;5069046;28;20020;-51
2023/12/04 08:56:10;;;;;;;6.45;2.45;;;7.00;99.90;;;;;;5071836;28;20493;-53
2023/12/04 08:58:36;;;;;;;4.68;3.00;;;7.00;99.90;;;;;;5068581;28;20036;-46
2023/12/04 09:01:02;;;;;;;9.50;2.78;;;7.00;99.90;;;;;;5065298;28;20408;-54
2023/12/04 09:03:28;;;;;;;6.10;2.78;;;7.00;99.90;;;;;;5069301;28;20024;-47
2023/12/04 09:05:55;;;;;;;7.18;2.90;;;7.00;99.90;;;;;;5062599;28;20021;-53
2023/12/04 09:08:22;;;;;;;14.18;3.35;;;7.10;99.90;;;;;;5057832;28;20058;-50
2023/12/04 09:10:48;;;;;;;8.30;3.42;;;7.10;99.90;;;;;;5065258;28;20044;-48
2023/12/04 09:13:15;;;;;;;8.10;2.38;;;7.10;99.90;;;;;;5069841;28;20029;-52
2023/12/04 09:15:40;;;;;;;11.02;2.65;;;7.10;99.90;;;;;;5063233;28;20051;-47
2023/12/04 09:18:06;;;;;;;5.63;2.42;;;7.10;99.90;;;;;;5067916;28;21486;-48
2023/12/04 09:20:32;;;;;;;7.90;2.83;;;7.10;99.90;;;;;;5064552;28;20036;-47
2023/12/04 09:22:57;;;;;;;12.30;3.05;;;7.20;99.90;;;;;;5047899;28;20056;-45
2023/12/04 09:25:23;;;;;;;6.90;2.67;;;7.20;99.90;;;;;;5063401;28;20409;-51
2023/12/04 09:27:49;;;;;;;6.68;2.65;;;7.20;99.90;;;;;;5064185;28;20036;-45
2023/12/04 09:30:14;;;;;;;6.13;2.42;;;7.20;99.90;;;;;;5058952;28;20658;-47
2023/12/04 09:32:40;;;;;;;10.95;2.97;;;7.20;99.90;;;;;;5050276;28;20555;-45
2023/12/04 09:35:07;;;;;;;5.55;2.15;;;7.20;99.90;;;;;;5050971;28;20025;-49
2023/12/04 09:37:32;;;;;;;9.23;2.97;;;7.30;99.90;;;;;;5053920;28;20404;-47
2023/12/04 09:39:58;;;;;;;8.02;2.80;;;7.30;99.90;;;;;;5070567;28;20028;-45
2023/12/04 09:42:24;;;;;;;8.30;2.90;;;7.30;99.90;;;;;;5054685;28;20377;-45
2023/12/04 09:44:52;;;;;;;6.95;2.28;;;7.30;99.90;;;;;;5057468;28;20029;-45
2023/12/04 09:47:18;;;;;;;7.60;2.30;;;7.30;99.90;;;;;;5048533;28;20025;-45
2023/12/04 09:49:45;;;;;;;6.50;2.88;;;7.20;99.90;;;;;;5049720;28;20013;-49
2023/12/04 09:52:11;;;;;;;11.30;2.80;;;7.30;99.90;;;;;;5049287;28;20103;-54
2023/12/04 09:54:38;;;;;;;9.38;2.70;;;7.30;99.90;;;;;;5048601;28;20501;-45
2023/12/04 09:57:05;;;;;;;15.48;3.10;;;7.30;99.90;;;;;;5050993;28;20131;-50
2023/12/04 09:59:31;;;;;;;7.82;2.80;;;7.30;99.90;;;;;;5050997;28;20501;-45
2023/12/04 10:01:57;;;;;;;7.90;2.70;;;7.30;99.90;;;;;;5051316;28;20106;-48
2023/12/04 10:04:24;;;;;;;9.85;2.65;;;7.30;99.90;;;;;;5051468;28;20033;-50
2023/12/04 10:06:52;;;;;;;5.63;2.65;;;7.30;99.90;;;;;;5059956;28;20021;-48
2023/12/04 10:09:18;;;;;;;5.18;1.98;;;7.40;99.90;;;;;;5050842;28;20013;-46
2023/12/04 10:11:47;;;;;;;6.60;2.63;;;7.40;99.90;;;;;;5050249;28;20444;-46
2023/12/04 10:14:17;;;;;;;9.55;2.42;;;7.30;99.90;;;;;;5050909;28;20070;-48
2023/12/04 10:16:43;;;;;;;6.15;2.22;;;7.40;99.90;;;;;;5055194;28;20032;-52
2023/12/04 10:19:22;;;;;;;7.72;2.30;;;7.30;99.90;;;;;;5050719;28;20098;-52
2023/12/04 10:21:50;;;;;;;9.82;2.15;;;7.40;99.90;;;;;;5050706;28;20036;-50
2023/12/04 10:24:32;;;;;;;9.38;2.42;;;7.40;99.90;;;;;;5050596;28;20040;-48
2023/12/04 10:26:58;;;;;;;6.43;2.42;;;7.40;99.90;;;;;;5050732;28;20094;-46
2023/12/04 10:29:25;;;;;;;3.72;2.00;;;7.40;99.90;;;;;;5050651;28;20033;-45
2023/12/04 10:31:52;;;;;;;10.48;2.22;;;7.40;99.90;;;;;;5050579;28;20017;-48
2023/12/04 10:34:18;;;;;;;8.43;2.65;;;7.40;99.90;;;;;;5050632;28;20035;-48
2023/12/04 10:36:46;;;;;;;6.45;2.28;;;7.40;99.90;;;;;;5059552;28;20074;-45
2023/12/04 10:39:13;;;;;;;9.57;2.83;;;7.40;99.90;;;;;;5066542;28;20052;-47
2023/12/04 10:41:39;;;;;;;7.38;2.83;;;7.40;99.90;;;;;;5057898;28;20028;-48
2023/12/04 10:44:04;;;;;;;5.70;2.50;;;7.40;99.90;;;;;;5057135;28;20033;-46
2023/12/04 10:46:31;;;;;;;14.00;2.83;;;7.40;99.90;;;;;;5050550;28;20025;-48
2023/12/04 10:48:58;;;;;;;12.18;3.03;;;7.40;99.90;;;;;;5064807;28;20021;-47
2023/12/04 10:51:25;;;;;;;12.95;3.10;;;7.40;99.90;;;;;;5069283;28;20081;-51
2023/12/04 10:53:51;;;;;;;8.43;2.55;;;7.50;99.90;;;;;;5069523;28;20025;-55
2023/12/04 10:56:30;;;;;;;11.02;2.60;;;7.50;99.90;;;;;;5062253;28;20025;-48
2023/12/04 10:58:57;;;;;;;;;;;7.50;99.90;;;;;;5065224;28;20493;-49
2023/12/04 11:01:24;;;;;;;7.30;2.85;;;7.50;99.90;;;;;;5057651;28;19916;-48
2023/12/04 11:03:54;;;;;;;3.47;2.15;;;7.50;99.90;;;;;;5069490;28;20021;-50
2023/12/04 11:06:21;;;;;;;10.20;2.83;;;7.50;99.90;;;;;;5051678;28;20052;-51
2023/12/04 11:08:48;;;;;;;4.72;2.53;;;7.50;99.90;;;;;;5054258;28;20051;-46
2023/12/04 11:11:27;;;;;;;7.32;2.70;;;7.40;99.90;;;;;;5051403;28;20090;-56
2023/12/04 11:13:57;;;;;;;9.13;2.53;;;7.50;99.90;;;;;;5051725;28;20493;-51
2023/12/04 11:17:05;;;;;;;9.50;2.90;;;7.50;99.90;;;;;;5062662;28;20064;-48
2023/12/04 11:19:59;;;;;;;12.48;2.70;;;7.50;99.90;;;;;;5049901;28;20069;-47
2023/12/04 11:22:25;;;;;;;5.60;2.15;;;7.50;99.90;;;;;;5054668;28;20530;-50
2023/12/04 11:24:52;;;;;;;6.53;2.55;;;7.40;99.90;;;;;;5061783;28;20028;-47
2023/12/04 11:27:18;;;;;;;7.93;3.05;;;7.50;99.90;;;;;;5056157;28;20021;-49
2023/12/04 11:29:46;;;;;;;9.27;3.30;;;7.50;99.90;;;;;;5053683;28;20021;-47
2023/12/04 11:32:16;;;;;;;7.75;2.75;;;7.50;99.90;;;;;;5057085;28;20037;-46
2023/12/04 11:34:54;;;;;;;6.57;2.72;;;7.50;99.90;;;;;;5053821;28;20024;-53
2023/12/04 11:37:21;;;;;;;6.63;2.80;;;7.50;99.90;;;;;;5063085;28;20052;-45
2023/12/04 11:39:50;;;;;;;10.30;2.80;;;7.40;99.90;;;;;;5065454;28;20127;-49
2023/12/04 11:42:23;;;;;;;6.33;2.70;;;7.50;99.90;;;;;;5055637;28;20079;-46
2023/12/04 11:44:55;;;;;;;9.90;2.78;;;7.50;99.90;;;;;;5053611;28;20029;-53
2023/12/04 11:47:21;;;;;;;7.28;2.58;;;7.50;99.90;;;;;;5055961;28;20036;-55
2023/12/04 11:49:47;;;;;;;12.80;2.35;;;7.50;99.90;;;;;;5053933;28;20033;-44
2023/12/04 11:52:12;;;;;;;7.70;2.45;;;7.50;99.90;;;;;;5056694;28;20025;-54
2023/12/04 11:55:05;;;;;;;3.95;2.05;;;7.50;99.90;;;;;;5053518;28;20090;-51
2023/12/04 11:57:35;;;;;;;8.00;2.40;;;7.60;99.90;;;;;;5053395;28;20060;-47
2023/12/04 12:00:11;;;;;;;7.18;2.00;;;7.60;99.90;;;;;;5065267;28;20060;-48
2023/12/04 12:02:39;;;;;;;6.47;1.95;;;7.50;99.90;;;;;;5063538;28;20036;-45
2023/12/04 12:05:05;;;;;;;6.82;1.90;;;7.60;99.90;;;;;;5053120;28;20017;-47
2023/12/04 12:07:31;;;;;;;6.10;2.40;;;7.60;99.90;;;;;;5057322;28;20035;-48
2023/12/04 12:09:57;;;;;;;3.33;1.77;;;7.60;99.90;;;;;;5054324;28;20024;-49
2023/12/04 12:12:24;;;;;;;7.40;2.70;;;7.60;99.90;;;;;;5057325;28;20062;-47
2023/12/04 12:14:50;;;;;;;4.80;1.80;;;7.70;99.90;;;;;;5059046;28;20068;-44
2023/12/04 12:17:16;;;;;;;3.25;1.70;;;7.70;99.90;;;;;;5060481;28;20451;-46
2023/12/04 12:19:41;;;;;;;4.57;1.55;;;7.70;99.90;;;;;;5052836;28;20036;-50
2023/12/04 12:22:07;;;;;;;7.47;2.40;;;7.80;99.90;;;;;;5057624;28;20025;-51
2023/12/04 12:24:33;;;;;;;4.32;2.15;;;7.80;99.90;;;;;;5061036;28;20420;-46
2023/12/04 12:26:59;;;;;;;7.03;1.85;;;7.80;99.90;;;;;;5055111;28;20075;-46
2023/12/04 12:29:24;;;;;;;5.00;1.52;;;7.90;99.90;;;;;;5057900;28;20128;-44
2023/12/04 12:31:50;;;;;;;5.43;1.73;;;7.90;99.90;;;;;;5057467;28;20500;-44
2023/12/04 12:34:17;;;;;;;5.57;2.10;;;7.90;99.90;;;;;;5071130;28;20074;-45
2023/12/04 12:36:43;;;;;;;4.55;1.50;;;7.90;99.90;;;;;;5054543;28;20025;-50
2023/12/04 12:39:09;;;;;;;5.80;1.77;;;7.90;99.90;;;;;;5063372;28;20068;-43
2023/12/04 12:41:35;;;;;;;3.53;1.65;;;7.90;99.90;;;;;;5078701;28;20265;-48
2023/12/04 12:44:00;;;;;;;4.20;1.70;;;7.90;99.90;;;;;;5072749;28;20020;-48
2023/12/04 12:46:27;;;;;;;2.78;1.50;;;7.90;99.90;;;;;;5072271;28;20028;-44
2023/12/04 12:48:52;;;;;;;3.80;1.92;;;7.90;99.90;;;;;;5071337;28;20486;-47
2023/12/04 12:51:18;;;;;;;4.53;1.60;;;7.90;99.90;;;;;;5072259;28;20035;-47